Time;durP1;ratioP1;P1;durP2;ratioP2;P2;SDS_P1;SDS_P2;PMS_P1;PMS_P2;Temp;Humidity;BMP_temperature;BMP_pressure;BME280_temperature;BME280_humidity;BME280_pressure;Samples;Min_cycle;Max_cycle;Signal;HPM_P1;HPM_P2
2023/09/12 00:04:34;;;;;;;7.13;3.22;;;;;;;20.04;61.44;99544.69;10516205;28;20487;-61
2023/09/12 00:09:36;;;;;;;7.53;3.05;;;;;;;19.95;61.41;99546.47;10513086;28;20044;-62
2023/09/12 00:14:38;;;;;;;9.68;3.63;;;;;;;19.92;61.81;99540.66;10515693;28;20499;-61
2023/09/12 00:19:40;;;;;;;9.25;3.20;;;;;;;19.85;61.82;99524.56;10516688;28;20491;-61
2023/09/12 00:24:42;;;;;;;10.77;3.72;;;;;;;19.88;61.76;99523.41;10521878;28;20288;-62
2023/09/12 00:29:44;;;;;;;8.98;3.47;;;;;;;19.92;61.81;99528.25;10531335;28;20044;-61
2023/09/12 00:34:47;;;;;;;10.77;3.58;;;;;;;19.91;61.64;99523.09;10524615;28;20104;-61
2023/09/12 00:39:50;;;;;;;6.28;3.22;;;;;;;19.90;61.57;99527.56;10529335;28;20052;-62
2023/09/12 00:44:52;;;;;;;17.23;4.60;;;;;;;19.83;62.06;99517.72;10514768;28;20063;-61
2023/09/12 00:49:56;;;;;;;6.05;2.65;;;;;;;19.77;62.00;99519.19;10510247;28;20117;-62
2023/09/12 00:54:58;;;;;;;16.45;4.20;;;;;;;19.81;62.22;99506.41;10515288;28;20051;-61
2023/09/12 01:00:10;;;;;;;6.28;3.00;;;;;;;19.76;62.30;99503.44;10514105;28;20515;-61
2023/09/12 01:05:14;;;;;;;8.20;3.38;;;;;;;19.77;61.96;99511.22;10515577;28;20544;-61
2023/09/12 01:10:17;;;;;;;9.48;3.10;;;;;;;19.63;62.31;99508.34;10508658;28;20425;-61
2023/09/12 01:15:19;;;;;;;6.32;3.00;;;;;;;19.58;62.45;99502.69;10513014;28;20133;-62
2023/09/12 01:20:30;;;;;;;7.03;3.15;;;;;;;19.55;62.51;99501.19;10516208;28;20062;-61
2023/09/12 01:26:07;;;;;;;9.15;3.28;;;;;;;19.48;63.19;99515.25;10527792;28;20049;-62
2023/09/12 01:31:09;;;;;;;6.55;3.08;;;;;;;19.51;62.67;99517.56;10515540;28;20047;-61
2023/09/12 01:36:11;;;;;;;6.68;3.05;;;;;;;19.48;62.59;99505.47;10510229;28;20758;-62
2023/09/12 01:41:14;;;;;;;7.80;2.83;;;;;;;19.44;62.95;99504.09;10509118;28;20684;-61
2023/09/12 01:46:18;;;;;;;8.55;3.00;;;;;;;19.46;62.82;99507.41;10509689;28;20504;-62
2023/09/12 01:51:22;;;;;;;7.22;2.80;;;;;;;19.45;62.85;99511.91;10509825;28;20125;-62
2023/09/12 01:56:25;;;;;;;6.00;2.80;;;;;;;19.38;62.78;99502.06;10511914;28;20048;-61
2023/09/12 02:01:27;;;;;;;7.35;2.88;;;;;;;19.18;63.13;99504.13;10509964;28;20542;-61
2023/09/12 02:06:29;;;;;;;6.93;3.05;;;;;;;19.17;63.10;99505.13;10526050;28;20511;-61
2023/09/12 02:11:31;;;;;;;7.60;3.63;;;;;;;19.07;63.67;99498.28;10523026;28;20096;-61
2023/09/12 02:16:37;;;;;;;6.65;3.55;;;;;;;19.10;63.60;99500.59;10518743;28;20083;-61
2023/09/12 02:21:41;;;;;;;9.23;3.53;;;;;;;19.10;63.83;99496.13;10513986;28;20407;-61
2023/09/12 02:26:44;;;;;;;5.32;2.55;;;;;;;19.08;63.53;99507.88;10520210;28;20067;-61
2023/09/12 02:31:46;;;;;;;10.45;3.40;;;;;;;19.13;63.59;99501.13;10514753;28;20080;-61
2023/09/12 02:36:48;;;;;;;11.18;3.53;;;;;;;18.87;63.86;99496.78;10516530;28;20051;-61
2023/09/12 02:41:50;;;;;;;11.23;4.18;;;;;;;18.76;64.38;99502.31;10514390;28;20415;-61
2023/09/12 02:46:52;;;;;;;6.97;2.97;;;;;;;18.87;64.67;99502.88;10517031;28;20105;-61
2023/09/12 02:51:54;;;;;;;8.77;3.78;;;;;;;19.00;63.97;99495.38;10515871;28;20044;-61
2023/09/12 02:56:56;;;;;;;11.38;4.05;;;;;;;19.10;63.88;99500.59;10521922;28;20043;-62
2023/09/12 03:01:58;;;;;;;6.97;3.13;;;;;;;19.08;63.61;99498.09;10517484;28;20040;-61
2023/09/12 03:07:00;;;;;;;5.60;2.78;;;;;;;18.97;63.82;99490.38;10523519;28;20141;-61
2023/09/12 03:12:02;;;;;;;7.00;2.65;;;;;;;18.99;64.09;99496.34;10520158;28;20134;-61
2023/09/12 03:17:06;;;;;;;7.45;3.13;;;;;;;19.01;64.05;99489.06;10512513;28;20130;-61
2023/09/12 03:22:08;;;;;;;8.68;2.78;;;;;;;18.99;64.15;99491.03;10511880;28;20484;-61
2023/09/12 03:27:10;;;;;;;6.72;3.08;;;;;;;19.05;64.17;99490.47;10501830;28;20043;-62
2023/09/12 03:32:12;;;;;;;9.50;3.25;;;;;;;19.08;63.78;99487.50;10518362;28;20062;-61
2023/09/12 03:37:14;;;;;;;9.20;3.65;;;;;;;19.02;63.94;99493.44;10512879;28;20036;-61
2023/09/12 03:42:16;;;;;;;6.47;3.00;;;;;;;19.08;63.99;99487.50;10516981;28;20131;-61
2023/09/12 03:47:18;;;;;;;5.88;3.03;;;;;;;19.04;63.87;99487.97;10510812;28;20291;-61
2023/09/12 03:52:20;;;;;;;6.47;2.90;;;;;;;18.84;64.14;99484.66;10504913;28;20051;-61
2023/09/12 03:57:22;;;;;;;8.10;3.28;;;;;;;18.76;64.60;99484.59;10517874;28;20036;-61
2023/09/12 04:02:25;;;;;;;8.45;3.20;;;;;;;18.88;64.21;99480.72;10518793;28;20055;-61
2023/09/12 04:07:27;;;;;;;8.70;3.17;;;;;;;18.92;64.27;99474.13;10508156;28;20064;-61
2023/09/12 04:12:29;;;;;;;7.97;3.17;;;;;;;18.93;64.04;99477.59;10511167;28;20231;-62
2023/09/12 04:17:31;;;;;;;9.00;3.05;;;;;;;18.94;64.29;99479.25;10488882;28;20056;-61
2023/09/12 04:22:33;;;;;;;9.07;3.25;;;;;;;18.96;64.01;99480.78;10509564;28;20128;-61
2023/09/12 04:27:36;;;;;;;6.97;3.38;;;;;;;18.95;63.91;99478.28;10523807;28;20487;-61
2023/09/12 04:32:38;;;;;;;11.80;3.20;;;;;;;18.88;64.12;99485.16;10519122;28;20126;-61
2023/09/12 04:37:41;;;;;;;8.48;3.20;;;;;;;18.83;64.52;99480.34;10520126;28;20048;-61
2023/09/12 04:42:43;;;;;;;7.90;3.25;;;;;;;18.84;64.25;99486.47;10523437;28;20051;-62
2023/09/12 04:47:45;;;;;;;6.18;3.22;;;;;;;18.85;64.46;99488.16;10512570;28;20048;-61
2023/09/12 04:52:47;;;;;;;12.60;3.13;;;;;;;18.83;64.32;99490.94;10496383;28;20491;-61
2023/09/12 04:57:49;;;;;;;5.38;3.15;;;;;;;18.83;64.11;99485.63;10513053;28;20073;-62
2023/09/12 05:02:51;;;;;;;6.78;3.35;;;;;;;18.90;64.23;99483.19;10516897;28;20090;-62
2023/09/12 05:07:53;;;;;;;10.48;3.20;;;;;;;18.83;64.49;99476.88;10496476;28;20048;-61
2023/09/12 05:12:56;;;;;;;5.90;3.20;;;;;;;18.83;64.55;99479.53;10533213;27;20525;-61
2023/09/12 05:17:58;;;;;;;7.63;3.30;;;;;;;18.87;64.05;99471.09;10516476;28;20054;-62
2023/09/12 05:23:00;;;;;;;9.90;3.05;;;;;;;18.84;64.09;99470.56;10515278;28;20047;-61
2023/09/12 05:28:03;;;;;;;7.40;3.13;;;;;;;18.59;64.74;99480.16;10513802;28;20043;-61
2023/09/12 05:33:04;;;;;;;8.65;4.05;;;;;;;18.41;65.25;99481.97;10518493;28;20058;-62
2023/09/12 05:38:07;;;;;;;6.13;2.80;;;;;;;18.42;64.90;99481.81;10511877;28;20921;-61
2023/09/12 05:43:09;;;;;;;8.10;2.95;;;;;;;18.50;65.08;99475.78;10527644;27;20526;-61
2023/09/12 05:48:11;;;;;;;9.68;3.00;;;;;;;18.76;64.50;99487.25;10516595;28;20036;-62
2023/09/12 05:53:13;;;;;;;9.93;3.35;;;;;;;18.92;64.55;99486.53;10517242;28;20055;-61
2023/09/12 05:58:15;;;;;;;8.15;3.35;;;;;;;19.02;64.01;99492.59;10516976;28;20048;-61
2023/09/12 06:03:17;;;;;;;14.38;3.33;;;;;;;19.14;63.77;99496.63;10500616;28;20528;-61
2023/09/12 06:08:19;;;;;;;5.63;2.83;;;;;;;19.25;63.49;99499.03;10508279;28;20050;-62
2023/09/12 06:13:21;;;;;;;9.77;3.08;;;;;;;19.28;63.54;99499.56;10519376;28;20075;-61
2023/09/12 06:18:24;;;;;;;11.27;3.45;;;;;;;19.41;63.57;99504.44;10509727;28;20058;-61
2023/09/12 06:23:26;;;;;;;7.32;3.47;;;;;;;19.70;62.91;99493.47;10531045;28;20105;-61
2023/09/12 06:28:30;;;;;;;8.63;3.10;;;;;;;19.99;62.35;99491.28;10515190;28;20086;-62
2023/09/12 06:33:32;;;;;;;8.20;3.20;;;;;;;20.32;62.04;99495.63;10505912;28;20040;-61
2023/09/12 06:38:34;;;;;;;7.75;3.40;;;;;;;20.54;61.44;99489.66;10508303;28;20044;-61
2023/09/12 06:43:36;;;;;;;6.47;3.20;;;;;;;20.72;61.14;99495.69;10506201;28;20050;-61
2023/09/12 06:48:38;;;;;;;7.53;3.67;;;;;;;20.73;60.69;99494.69;10518693;28;20173;-62
2023/09/12 06:53:40;;;;;;;9.07;3.20;;;;;;;20.85;60.62;99504.00;10509244;28;20078;-62
2023/09/12 06:58:43;;;;;;;6.18;3.38;;;;;;;20.96;60.43;99498.34;10514093;28;20052;-64
2023/09/12 07:03:45;;;;;;;13.45;3.78;;;;;;;21.01;59.93;99501.31;10504220;28;20624;-64
2023/09/12 07:08:48;;;;;;;7.28;3.33;;;;;;;21.03;59.76;99501.13;10507041;28;20043;-64
2023/09/12 07:13:50;;;;;;;7.50;3.97;;;;;;;21.12;59.45;99501.97;10513071;28;20036;-64
2023/09/12 07:18:54;;;;;;;8.27;3.55;;;;;;;21.20;59.44;99502.78;10520308;28;20047;-64
2023/09/12 07:23:57;;;;;;;14.60;3.47;;;;;;;21.33;59.32;99491.66;10517995;28;20127;-63
2023/09/12 07:29:02;;;;;;;7.57;3.20;;;;;;;21.44;59.00;99486.78;10517210;28;20119;-64
2023/09/12 07:34:04;;;;;;;7.35;3.88;;;;;;;21.55;58.63;99491.75;10506418;28;20059;-64
2023/09/12 07:39:10;;;;;;;13.98;5.05;;;;;;;21.69;58.41;99492.84;10511123;28;20185;-64
2023/09/12 07:44:15;;;;;;;11.13;4.03;;;;;;;22.10;57.69;99502.34;10506666;28;20028;-64
2023/09/12 07:49:17;;;;;;;9.60;4.57;;;;;;;22.61;56.54;99496.31;10515299;28;20040;-63
2023/09/12 07:54:19;;;;;;;7.28;3.20;;;;;;;23.08;55.49;99495.25;10507762;28;20059;-63
2023/09/12 07:59:22;;;;;;;14.55;3.33;;;;;;;23.21;54.72;99511.44;10513823;28;20040;-63
2023/09/12 08:04:23;;;;;;;13.80;3.72;;;;;;;23.54;54.06;99507.47;10528058;28;20135;-63
2023/09/12 08:09:50;;;;;;;7.80;3.90;;;;;;;24.03;52.14;99510.34;10521985;28;20056;-63
2023/09/12 08:14:53;;;;;;;9.70;3.92;;;;;;;24.07;52.31;99496.47;10518608;28;20044;-62
2023/09/12 08:19:55;;;;;;;9.13;3.55;;;;;;;24.31;52.19;99500.59;10520999;28;20109;-63
2023/09/12 08:24:57;;;;;;;7.93;3.13;;;;;;;24.69;50.87;99485.16;10524068;28;21138;-63
2023/09/12 08:29:59;;;;;;;14.07;4.85;;;;;;;24.70;50.69;99486.78;10523640;28;20043;-64
2023/09/12 08:35:03;;;;;;;8.75;4.22;;;;;;;24.98;50.32;99495.69;10520641;28;20044;-63
2023/09/12 08:40:08;;;;;;;7.72;3.30;;;;;;;25.06;49.45;99491.03;10517216;28;20155;-63
2023/09/12 08:45:16;;;;;;;9.77;3.42;;;;;;;25.20;48.43;99491.97;10521381;28;20265;-63
2023/09/12 08:50:20;;;;;;;7.05;3.50;;;;;;;25.29;48.66;99498.81;10514080;28;20040;-63
2023/09/12 08:55:22;;;;;;;12.20;4.25;;;;;;;25.39;48.74;99498.47;10515757;28;20127;-64
2023/09/12 09:00:26;;;;;;;15.68;4.00;;;;;;;25.75;48.14;99497.22;10516315;28;20052;-63
2023/09/12 09:05:29;;;;;;;12.25;4.30;;;;;;;26.12;47.43;99501.31;10522332;28;20066;-63
2023/09/12 09:10:32;;;;;;;14.20;4.05;;;;;;;26.53;46.77;99503.88;10514167;28;20044;-64
2023/09/12 09:16:19;;;;;;;14.60;4.22;;;;;;;26.56;45.06;99496.31;10512180;28;20046;-63
2023/09/12 09:21:25;;;;;;;;;;;;;;;26.25;44.98;99492.50;10513046;28;20071;-64
2023/09/12 09:26:47;;;;;;;7.53;3.38;;;;;;;26.18;45.81;99497.03;10513196;28;19930;-64
2023/09/12 09:31:51;;;;;;;8.50;3.33;;;;;;;26.51;46.31;99489.84;10512076;28;20121;-64
2023/09/12 09:36:55;;;;;;;13.02;3.80;;;;;;;26.52;45.83;99492.34;10513262;28;20055;-63
2023/09/12 09:41:57;;;;;;;12.18;3.80;;;;;;;27.09;45.38;99488.25;10512022;28;20963;-63
2023/09/12 09:47:02;;;;;;;11.70;3.92;;;;;;;27.31;44.95;99482.47;10524644;28;20395;-63
2023/09/12 09:52:07;;;;;;;8.40;3.60;;;;;;;27.46;44.22;99480.34;10512054;28;20048;-64
2023/09/12 09:57:09;;;;;;;10.45;3.50;;;;;;;27.78;43.98;99467.06;10516112;28;20063;-64
2023/09/12 10:02:19;;;;;;;8.73;3.40;;;;;;;27.90;43.06;99463.50;10511460;28;20044;-64
2023/09/12 10:07:21;;;;;;;7.88;3.30;;;;;;;27.95;43.56;99460.97;10510884;28;20699;-64
2023/09/12 10:12:24;;;;;;;9.70;3.50;;;;;;;27.93;43.90;99454.97;10523914;28;20044;-64
2023/09/12 10:17:34;;;;;;;12.00;3.63;;;;;;;27.95;42.96;99450.22;10511010;28;20048;-63
2023/09/12 10:22:48;;;;;;;8.48;3.15;;;;;;;28.05;42.17;99460.53;10509969;28;20083;-64
2023/09/12 10:27:52;;;;;;;9.38;3.40;;;;;;;28.17;43.35;99458.78;10514116;28;20421;-64
2023/09/12 10:32:55;;;;;;;7.32;3.10;;;;;;;28.18;43.36;99446.97;10520137;28;20131;-64
2023/09/12 10:38:03;;;;;;;10.82;3.33;;;;;;;28.62;43.02;99443.41;10509732;28;20110;-64
2023/09/12 10:43:08;;;;;;;11.63;3.33;;;;;;;28.35;43.03;99444.63;10518351;28;20036;-64
2023/09/12 10:48:11;;;;;;;7.50;3.58;;;;;;;28.13;43.27;99439.59;10514984;28;20048;-64
2023/09/12 10:53:15;;;;;;;7.72;3.35;;;;;;;28.08;43.62;99430.50;10514269;28;20048;-64
2023/09/12 10:58:17;;;;;;;10.93;3.90;;;;;;;27.69;44.08;99438.75;10510272;28;20487;-63
2023/09/12 11:03:28;;;;;;;8.65;3.38;;;;;;;27.84;43.42;99437.47;10525501;28;20040;-64
2023/09/12 11:08:35;;;;;;;11.35;3.13;;;;;;;28.60;43.23;99422.09;10508077;28;20048;-64
2023/09/12 11:13:41;;;;;;;8.73;3.28;;;;;;;28.89;42.90;99416.06;10513557;28;20040;-64
2023/09/12 11:19:18;;;;;;;10.82;3.63;;;;;;;29.02;42.16;99418.63;10517217;28;20052;-64
2023/09/12 11:24:21;;;;;;;7.03;3.42;;;;;;;29.15;42.24;99431.13;10512971;28;20306;-64
2023/09/12 11:29:34;;;;;;;9.70;3.45;;;;;;;29.23;41.07;99433.53;10512776;28;20047;-64
2023/09/12 11:34:41;;;;;;;6.38;3.13;;;;;;;29.68;41.03;99434.88;10517155;28;20044;-64
2023/09/12 11:39:43;;;;;;;8.65;3.75;;;;;;;29.84;41.00;99430.75;10517658;28;20521;-64
2023/09/12 11:44:45;;;;;;;8.15;3.40;;;;;;;29.81;41.17;99441.97;10527013;28;20166;-64
2023/09/12 11:49:48;;;;;;;6.70;3.00;;;;;;;29.73;41.62;99431.50;10530360;28;20051;-64
2023/09/12 11:54:50;;;;;;;6.78;3.15;;;;;;;29.41;41.87;99448.91;10516228;28;20488;-64
2023/09/12 11:59:52;;;;;;;9.30;3.53;;;;;;;29.15;42.21;99444.59;10515084;28;20515;-64
2023/09/12 12:04:57;;;;;;;7.72;3.25;;;;;;;28.67;42.62;99449.75;10517286;28;20054;-64
2023/09/12 12:09:59;;;;;;;7.07;3.60;;;;;;;28.18;43.66;99449.66;10503394;28;20044;-64
2023/09/12 12:15:11;;;;;;;7.78;3.47;;;;;;;27.69;44.78;99422.63;10516006;28;20445;-64
2023/09/12 12:20:14;;;;;;;11.65;4.38;;;;;;;27.43;45.26;99412.81;10506858;28;20101;-64
2023/09/12 12:25:17;;;;;;;8.32;4.00;;;;;;;27.56;47.40;99444.19;10510823;28;20367;-64
2023/09/12 12:30:19;;;;;;;6.53;3.60;;;;;;;27.46;47.42;99442.75;10520732;28;20044;-64
2023/09/12 12:35:23;;;;;;;7.95;4.00;;;;;;;27.44;47.14;99444.03;10507570;28;20105;-64
2023/09/12 12:40:45;;;;;;;8.13;4.35;;;;;;;27.25;47.38;99452.94;10506665;28;20040;-64
2023/09/12 12:45:58;;;;;;;8.82;4.00;;;;;;;27.08;47.65;99439.09;10516063;28;20059;-63
2023/09/12 12:51:16;;;;;;;6.45;3.90;;;;;;;27.09;48.27;99424.66;10523228;28;20044;-63
2023/09/12 12:56:21;;;;;;;8.13;3.85;;;;;;;27.27;49.39;99427.53;10511256;28;20396;-63
2023/09/12 13:01:23;;;;;;;8.43;3.53;;;;;;;27.18;50.14;99444.91;10515045;28;20788;-63
2023/09/12 13:06:27;;;;;;;12.18;4.25;;;;;;;27.02;51.63;99434.56;10517577;28;20064;-64
2023/09/12 13:11:30;;;;;;;9.75;4.43;;;;;;;27.19;51.39;99433.13;10518611;28;20039;-64
2023/09/12 13:16:34;;;;;;;7.65;3.95;;;;;;;27.55;50.70;99421.03;10522858;28;20046;-64
2023/09/12 13:21:37;;;;;;;9.52;4.03;;;;;;;27.93;49.95;99405.78;10519946;28;20153;-63
2023/09/12 13:26:40;;;;;;;7.50;3.92;;;;;;;27.87;48.99;99406.66;10515561;28;20047;-63
2023/09/12 13:31:42;;;;;;;9.57;4.03;;;;;;;27.82;49.33;99404.59;10518771;28;20902;-64
2023/09/12 13:36:44;;;;;;;8.52;4.53;;;;;;;27.77;48.81;99403.63;10509046;28;20040;-64
2023/09/12 13:41:52;;;;;;;8.90;4.50;;;;;;;28.07;48.81;99410.06;10522633;28;20051;-64
2023/09/12 13:46:54;;;;;;;8.68;4.30;;;;;;;28.39;48.44;99400.94;10517615;28;20048;-64
2023/09/12 13:51:56;;;;;;;10.43;4.75;;;;;;;28.46;48.36;99401.69;10528868;28;20058;-64
2023/09/12 13:56:58;;;;;;;10.70;4.63;;;;;;;28.20;48.07;99401.88;10527140;28;20071;-64
2023/09/12 14:02:00;;;;;;;11.68;5.13;;;;;;;28.14;48.11;99405.44;10529120;28;20056;-64
2023/09/12 14:07:03;;;;;;;9.00;5.00;;;;;;;28.05;48.26;99393.31;10517215;28;20539;-64
2023/09/12 14:12:06;;;;;;;9.88;5.13;;;;;;;27.95;48.41;99398.34;10508593;28;20051;-63
2023/09/12 14:17:22;;;;;;;8.55;4.57;;;;;;;28.01;48.23;99387.53;10513178;28;20052;-63
2023/09/12 14:22:25;;;;;;;8.32;5.05;;;;;;;28.25;47.73;99380.53;10510517;28;20051;-64
2023/09/12 14:27:29;;;;;;;11.55;4.97;;;;;;;28.59;47.07;99373.88;10510175;28;20684;-64
2023/09/12 14:32:31;;;;;;;9.32;4.65;;;;;;;28.57;47.11;99374.09;10514486;28;20412;-64
2023/09/12 14:37:33;;;;;;;10.80;5.03;;;;;;;28.01;47.40;99373.28;10519138;28;20058;-64
2023/09/12 14:42:35;;;;;;;12.13;4.70;;;;;;;27.90;47.62;99371.28;10511550;28;20091;-64
2023/09/12 14:47:37;;;;;;;12.13;5.10;;;;;;;27.97;47.34;99369.38;10512378;28;20096;-64
2023/09/12 14:52:39;;;;;;;8.77;4.85;;;;;;;28.43;47.09;99358.28;10521023;28;20079;-64
2023/09/12 14:57:41;;;;;;;10.77;5.03;;;;;;;28.42;46.89;99354.75;10509804;28;20055;-63
2023/09/12 15:02:43;;;;;;;10.02;4.72;;;;;;;28.26;47.00;99348.03;10507199;28;20062;-64
2023/09/12 15:07:45;;;;;;;10.18;4.85;;;;;;;28.18;46.65;99344.81;10511159;28;20048;-64
2023/09/12 15:12:47;;;;;;;8.43;4.70;;;;;;;27.85;47.11;99342.34;10513780;28;20035;-63
2023/09/12 15:17:49;;;;;;;10.68;4.72;;;;;;;27.67;47.35;99336.84;10510819;28;20074;-64
2023/09/12 15:22:53;;;;;;;11.10;5.00;;;;;;;27.59;47.36;99337.09;10510015;28;20054;-63
2023/09/12 15:27:54;;;;;;;8.35;4.63;;;;;;;27.55;47.54;99327.00;10512323;28;20044;-64
2023/09/12 15:32:56;;;;;;;9.00;4.82;;;;;;;27.44;47.31;99332.00;10507021;28;20036;-64
2023/09/12 15:37:59;;;;;;;9.73;4.97;;;;;;;27.45;47.22;99328.31;10514538;28;20051;-64
2023/09/12 15:43:02;;;;;;;7.50;4.78;;;;;;;27.56;47.06;99328.66;10509728;28;20376;-64
2023/09/12 15:48:24;;;;;;;13.60;4.90;;;;;;;27.62;46.56;99325.13;10518150;28;20043;-64
2023/09/12 15:53:26;;;;;;;9.80;5.00;;;;;;;27.58;46.84;99319.34;10519661;28;20052;-64
2023/09/12 15:58:29;;;;;;;11.60;4.75;;;;;;;27.55;46.82;99314.41;10518386;28;20036;-63
2023/09/12 16:03:32;;;;;;;11.30;5.05;;;;;;;27.50;46.40;99320.41;10519213;28;20408;-64
2023/09/12 16:08:34;;;;;;;10.70;4.60;;;;;;;27.31;46.92;99325.91;10519301;28;20094;-64
2023/09/12 16:13:36;;;;;;;10.55;4.63;;;;;;;27.28;47.11;99318.28;10521698;28;20060;-63
2023/09/12 16:18:38;;;;;;;8.93;4.97;;;;;;;27.24;47.13;99319.75;10522229;28;20070;-64
2023/09/12 16:23:40;;;;;;;9.35;4.60;;;;;;;27.23;47.16;99307.34;10526561;28;20048;-64
2023/09/12 16:28:42;;;;;;;9.43;4.45;;;;;;;27.04;47.23;99310.88;10526560;28;20060;-63
2023/09/12 16:33:45;;;;;;;11.90;4.72;;;;;;;26.77;47.37;99306.66;10518498;28;20051;-63
2023/09/12 16:38:47;;;;;;;8.52;4.22;;;;;;;26.65;48.00;99312.66;10522914;28;20479;-64
2023/09/12 16:43:49;;;;;;;8.98;4.45;;;;;;;26.53;48.54;99340.28;10512252;28;20500;-63
2023/09/12 16:48:51;;;;;;;7.30;4.15;;;;;;;26.34;49.06;99344.66;10523235;28;20039;-63
2023/09/12 16:53:54;;;;;;;9.07;4.47;;;;;;;26.07;49.96;99344.84;10517339;28;20835;-64
2023/09/12 16:58:56;;;;;;;12.65;5.78;;;;;;;25.89;50.71;99353.44;10519596;28;20051;-63
2023/09/12 17:04:01;;;;;;;11.18;4.53;;;;;;;25.69;51.44;99340.00;10522633;28;20051;-64
2023/09/12 17:09:03;;;;;;;10.70;4.88;;;;;;;25.25;52.18;99323.56;10506648;28;20690;-64
2023/09/12 17:14:06;;;;;;;9.95;4.45;;;;;;;25.05;52.65;99317.31;10506198;28;20056;-64
2023/09/12 17:19:08;;;;;;;8.68;4.72;;;;;;;24.95;52.90;99316.84;10529008;28;20162;-64
2023/09/12 17:24:10;;;;;;;7.47;4.43;;;;;;;24.97;53.14;99312.13;10498960;28;20073;-63
2023/09/12 17:29:13;;;;;;;8.80;4.82;;;;;;;24.85;53.85;99319.06;10513203;28;20475;-64
2023/09/12 17:34:15;;;;;;;8.23;4.97;;;;;;;24.66;54.38;99319.72;10508231;28;20059;-64
2023/09/12 17:39:17;;;;;;;10.13;4.38;;;;;;;24.61;54.45;99316.84;10502194;28;20419;-64
2023/09/12 17:44:19;;;;;;;8.80;4.97;;;;;;;24.51;54.74;99305.66;10507730;28;20354;-64
2023/09/12 17:49:50;;;;;;;7.70;4.75;;;;;;;24.25;56.06;99311.63;10507354;28;20031;-62
2023/09/12 17:54:52;;;;;;;8.93;5.00;;;;;;;24.15;55.25;99295.09;10497077;28;20051;-62
2023/09/12 17:59:55;;;;;;;9.15;5.20;;;;;;;24.09;55.48;99274.50;10504169;28;20055;-61
2023/09/12 18:04:57;;;;;;;8.63;4.70;;;;;;;24.02;55.68;99258.41;10505881;28;20051;-62
2023/09/12 18:10:00;;;;;;;8.13;4.70;;;;;;;23.93;55.89;99272.09;10506041;28;20044;-61
2023/09/12 18:15:05;;;;;;;8.82;4.55;;;;;;;23.82;56.40;99283.31;10517696;28;20058;-61
2023/09/12 18:20:08;;;;;;;7.93;4.57;;;;;;;23.74;56.65;99294.94;10515290;28;20048;-61
2023/09/12 18:25:10;;;;;;;9.13;4.95;;;;;;;23.77;56.84;99305.25;10513606;28;20036;-62
2023/09/12 18:30:12;;;;;;;12.18;5.45;;;;;;;23.81;56.93;99282.47;10507675;28;20062;-61
2023/09/12 18:35:14;;;;;;;10.68;5.20;;;;;;;23.86;56.89;99241.84;10513893;28;20044;-61
2023/09/12 18:40:17;;;;;;;11.75;5.70;;;;;;;23.70;57.26;99232.25;10510888;28;20399;-61
2023/09/12 18:45:20;;;;;;;10.02;4.90;;;;;;;23.47;57.96;99255.66;10515945;28;20431;-62
2023/09/12 18:50:22;;;;;;;10.27;4.72;;;;;;;23.45;58.31;99295.06;10508262;28;20504;-61
2023/09/12 18:55:25;;;;;;;7.10;3.60;;;;;;;23.33;58.28;99309.88;10505303;28;20051;-61
2023/09/12 19:00:27;;;;;;;6.90;2.70;;;;;;;22.16;59.82;99469.66;10511974;28;20585;-62
2023/09/12 19:05:30;;;;;;;18.63;4.38;;;;;;;19.84;65.55;99686.59;10507663;28;20529;-63
2023/09/12 19:10:33;;;;;;;3.47;1.90;;;;;;;17.31;nan;99757.91;10515495;28;20051;-60
2023/09/12 19:15:36;;;;;;;6.65;1.70;;;;;;;17.65;nan;99798.00;10513862;28;20829;-60
2023/09/12 19:20:40;;;;;;;4.63;1.25;;;;;;;17.20;nan;99696.44;10507668;28;20047;-60
2023/09/12 19:25:47;;;;;;;6.30;1.42;;;;;;;17.17;nan;99583.06;10514983;28;20040;-60
2023/09/12 19:30:50;;;;;;;1.58;0.93;;;;;;;17.11;nan;99531.63;10515961;28;20395;-60
2023/09/12 19:35:52;;;;;;;1.38;0.80;;;;;;;17.08;nan;99549.56;10523792;28;20036;-61
2023/09/12 19:41:02;;;;;;;2.40;1.10;;;;;;;17.03;nan;99526.22;10506491;28;20071;-59
2023/09/12 19:46:06;;;;;;;2.67;1.07;;;;;;;17.12;nan;99570.25;10504404;28;20036;-59
2023/09/12 19:51:11;;;;;;;2.35;1.10;;;;;;;17.27;nan;99611.13;10502454;28;20214;-59
2023/09/12 19:56:14;;;;;;;2.03;1.00;;;;;;;17.39;nan;99614.47;10510685;28;20040;-60
2023/09/12 20:01:16;;;;;;;3.55;1.30;;;;;;;17.44;nan;99613.09;10525751;28;20433;-59
2023/09/12 20:06:20;;;;;;;2.00;1.10;;;;;;;17.43;nan;99629.91;10518369;28;20042;-59
2023/09/12 20:11:23;;;;;;;1.83;1.15;;;;;;;17.38;nan;99600.44;10521295;28;20036;-59
2023/09/12 20:16:25;;;;;;;2.90;1.45;;;;;;;17.26;nan;99598.06;10521301;28;20139;-59
2023/09/12 20:21:29;;;;;;;2.88;1.15;;;;;;;17.37;nan;99584.72;10514482;28;20048;-59
2023/09/12 20:26:36;;;;;;;1.83;1.23;;;;;;;17.06;nan;99570.00;10517956;28;20055;-59
2023/09/12 20:31:39;;;;;;;2.08;1.00;;;;;;;17.10;nan;99564.28;10507195;28;20036;-59
2023/09/12 20:36:44;;;;;;;1.92;1.13;;;;;;;17.30;nan;99549.25;10518851;28;20040;-59
2023/09/12 20:41:51;;;;;;;2.95;1.35;;;;;;;17.47;nan;99538.78;10518381;28;20162;-59
2023/09/12 20:46:57;;;;;;;1.90;1.23;;;;;;;17.41;nan;99530.56;10511959;28;20043;-59
2023/09/12 20:52:00;;;;;;;2.80;1.17;;;;;;;17.56;nan;99567.00;10511893;28;20492;-59
2023/09/12 20:57:03;;;;;;;3.08;1.35;;;;;;;17.52;nan;99605.28;10517032;28;20059;-59
2023/09/12 21:02:07;;;;;;;4.60;1.55;;;;;;;17.50;nan;99591.38;10509474;28;20040;-59
2023/09/12 21:07:10;;;;;;;2.53;1.20;;;;;;;17.57;nan;99592.44;10516223;28;20245;-60
2023/09/12 21:12:12;;;;;;;2.08;1.20;;;;;;;17.70;nan;99579.75;10510423;28;20109;-60
2023/09/12 21:17:15;;;;;;;3.17;1.25;;;;;;;17.74;nan;99562.63;10512561;28;20708;-60
2023/09/12 21:22:17;;;;;;;2.67;1.13;;;;;;;17.82;nan;99568.00;10507555;28;20459;-60
2023/09/12 21:27:20;;;;;;;1.83;1.30;;;;;;;17.81;nan;99561.03;10515440;28;20085;-60
2023/09/12 21:32:22;;;;;;;2.13;1.10;;;;;;;17.79;nan;99541.81;10514097;28;20070;-60
2023/09/12 21:37:24;;;;;;;2.90;1.25;;;;;;;17.85;nan;99556.31;10510528;28;20044;-60
2023/09/12 21:42:30;;;;;;;3.97;1.35;;;;;;;17.81;nan;99553.09;10517085;28;20529;-60
2023/09/12 21:47:37;;;;;;;4.25;1.45;;;;;;;17.89;nan;99535.66;10522777;28;20044;-60
2023/09/12 21:52:40;;;;;;;2.80;1.20;;;;;;;17.99;nan;99534.66;10511098;28;20043;-60
2023/09/12 21:57:44;;;;;;;2.83;1.40;;;;;;;18.02;nan;99531.69;10509089;28;20097;-60
2023/09/12 22:02:46;;;;;;;2.15;1.20;;;;;;;18.03;nan;99546.59;10507894;28;20389;-60
2023/09/12 22:07:48;;;;;;;2.85;1.45;;;;;;;18.01;nan;99550.38;10507431;28;20044;-60
2023/09/12 22:12:50;;;;;;;17.30;1.90;;;;;;;18.03;nan;99540.47;10515398;28;20093;-60
2023/09/12 22:17:53;;;;;;;2.17;1.20;;;;;;;18.01;nan;99531.84;10516754;28;20054;-60
2023/09/12 22:22:55;;;;;;;2.58;1.20;;;;;;;17.92;nan;99527.44;10512489;28;20133;-61
2023/09/12 22:27:57;;;;;;;2.42;1.52;;;;;;;17.87;nan;99516.47;10513663;28;20399;-60
2023/09/12 22:32:59;;;;;;;11.10;1.95;;;;;;;17.74;nan;99520.28;10511505;28;20043;-60
2023/09/12 22:38:01;;;;;;;3.40;1.20;;;;;;;17.73;nan;99523.91;10509596;28;20119;-60
2023/09/12 22:43:03;;;;;;;2.20;1.20;;;;;;;17.70;nan;99524.22;10511944;28;20040;-60
2023/09/12 22:48:05;;;;;;;2.17;1.23;;;;;;;17.72;nan;99524.91;10508194;28;20044;-60
2023/09/12 22:53:08;;;;;;;2.90;1.50;;;;;;;17.77;nan;99533.22;10512529;28;20044;-60
2023/09/12 22:58:10;;;;;;;2.63;1.55;;;;;;;17.75;nan;99531.72;10511280;28;20040;-60
2023/09/12 23:03:12;;;;;;;2.70;1.38;;;;;;;17.72;nan;99532.84;10524869;28;20071;-60
2023/09/12 23:08:14;;;;;;;3.03;1.60;;;;;;;17.84;nan;99534.31;10508941;28;20511;-60
2023/09/12 23:13:16;;;;;;;2.60;1.60;;;;;;;17.88;nan;99529.53;10508333;28;20543;-60
2023/09/12 23:18:18;;;;;;;2.63;1.48;;;;;;;17.79;nan;99528.59;10515617;28;20048;-60
2023/09/12 23:23:21;;;;;;;3.72;1.80;;;;;;;17.84;nan;99539.59;10512816;28;20081;-60
2023/09/12 23:28:24;;;;;;;4.93;2.20;;;;;;;17.94;nan;99550.13;10526687;28;20155;-60
2023/09/12 23:33:26;;;;;;;5.95;2.92;;;;;;;17.98;nan;99548.00;10519489;28;20526;-60
2023/09/12 23:38:28;;;;;;;5.53;2.53;;;;;;;17.97;nan;99551.63;10506619;28;20048;-60